Time,TemperatureF,DewpointF,PressureIn,WindDirection,WindDirectionDegrees,WindSpeedMPH,WindSpeedGustMPH,Humidity,HourlyPrecipIn,Conditions,Clouds,dailyrainin,SoftwareType,DateUTC
2013-03-01 00:00:00,32.6,30.5,29.74,WNW,290,3.2,7.0,92,0.00,RA,,0.00,WeatherDisplay:10.37,2013-03-01 05:00:00,
2013-03-01 00:01:00,32.6,30.5,29.74,WNW,301,3.7,5.8,92,0.00,RA,,0.00,WeatherDisplay:10.37,2013-03-01 05:01:00,
2013-03-01 00:06:00,32.5,30.4,29.74,WNW,300,5.3,10.4,92,0.00,RA,,0.00,WeatherDisplay:10.37,2013-03-01 05:06:00,
2013-03-01 00:11:00,32.5,30.4,29.74,NW,324,5.9,10.4,92,0.00,OVC,,0.00,WeatherDisplay:10.37,2013-03-01 05:11:00,
2013-03-01 00:16:00,32.3,30.2,29.74,NW,322,4.7,6.9,92,0.00,OVC,,0.00,WeatherDisplay:10.37,2013-03-01 05:16:00,
2013-03-01 00:21:00,32.3,30.0,29.74,NW,304,3.8,8.1,91,0.00,OVC,,0.00,WeatherDisplay:10.37,2013-03-01 05:21:00,
2013-03-01 00:26:00,32.1,29.8,29.75,NNW,335,4.6,9.2,91,0.00,OVC,,0.00,WeatherDisplay:10.37,2013-03-01 05:26:00,
2013-03-01 00:31:00,32.0,29.7,29.74,WNW,303,4.7,10.4,91,0.00,OVC,,0.00,WeatherDisplay:10.37,2013-03-01 05:31:00,
2013-03-01 00:36:00,32.0,29.7,29.75,WNW,292,3.1,3.5,91,0.00,OVC,,0.00,WeatherDisplay:10.37,2013-03-01 05:36:00,
2013-03-01 00:41:00,31.9,29.3,29.75,NNW,327,4.8,9.2,90,0.00,OVC,,0.00,WeatherDisplay:10.37,2013-03-01 05:41:00,
2013-03-01 00:46:00,31.8,29.2,29.75,NW,317,3.0,7.0,90,0.00,OVC,,0.00,WeatherDisplay:10.37,2013-03-01 05:46:00,
2013-03-01 00:51:00,31.7,29.1,29.75,NW,314,4.0,6.9,90,0.00,OVC,,0.00,WeatherDisplay:10.37,2013-03-01 05:51:00,
2013-03-01 00:56:00,31.7,29.1,29.75,WNW,302,6.0,9.0,90,0.00,OVC,,0.00,WeatherDisplay:10.37,2013-03-01 05:56:00,
2013-03-01 01:01:00,31.7,29.1,29.75,NW,310,6.3,8.1,90,0.00,OVC,,0.00,WeatherDisplay:10.37,2013-03-01 06:01:00,
2013-03-01 01:06:00,31.6,29.0,29.76,NW,309,3.9,10.4,90,0.00,OVC,,0.00,WeatherDisplay:10.37,2013-03-01 06:06:00,
2013-03-01 01:11:00,31.6,29.0,29.76,NW,316,3.7,4.6,90,0.00,OVC,,0.00,WeatherDisplay:10.37,2013-03-01 06:11:00,
2013-03-01 01:16:00,31.5,28.6,29.76,NW,313,4.1,8.1,89,0.00,OVC,,0.00,WeatherDisplay:10.37,2013-03-01 06:16:00,
2013-03-01 01:21:00,31.5,28.6,29.76,NW,316,4.9,10.4,89,0.00,OVC,,0.00,WeatherDisplay:10.37,2013-03-01 06:21:00,
2013-03-01 01:26:00,31.5,28.6,29.76,NNW,327,4.7,8.1,89,0.00,OVC,,0.00,WeatherDisplay:10.37,2013-03-01 06:26:00,
2013-03-01 01:31:00,31.4,28.5,29.76,NNW,327,4.9,9.2,89,0.00,OVC,,0.00,WeatherDisplay:10.37,2013-03-01 06:31:00,
2013-03-01 01:36:00,31.4,28.5,29.76,NW,309,4.2,6.9,89,0.00,OVC,,0.00,WeatherDisplay:10.37,2013-03-01 06:36:00,
2013-03-01 01:41:00,31.4,28.5,29.76,NW,326,4.0,6.9,89,0.00,OVC,,0.00,WeatherDisplay:10.37,2013-03-01 06:41:00,
2013-03-01 01:46:00,31.4,28.5,29.77,NNW,343,3.4,6.0,89,0.00,OVC,,0.00,WeatherDisplay:10.37,2013-03-01 06:46:00,
2013-03-01 01:51:00,31.4,28.5,29.77,North,355,4.2,9.2,89,0.00,OVC,,0.00,WeatherDisplay:10.37,2013-03-01 06:51:00,
2013-03-01 01:56:00,31.4,28.5,29.76,WNW,292,4.4,9.2,89,0.00,OVC,,0.00,WeatherDisplay:10.37,2013-03-01 06:56:00,
2013-03-01 02:01:00,31.3,28.4,29.77,NW,310,4.7,11.5,89,0.00,OVC,,0.00,WeatherDisplay:10.37,2013-03-01 07:01:00,
2013-03-01 02:06:00,31.2,28.3,29.77,NW,314,1.2,3.5,89,0.00,OVC,,0.00,WeatherDisplay:10.37,2013-03-01 07:06:00,
2013-03-01 02:11:00,31.2,28.3,29.77,NNW,344,3.4,4.6,89,0.00,OVC,,0.00,WeatherDisplay:10.37,2013-03-01 07:11:00,
2013-03-01 02:16:00,31.1,28.5,29.77,NW,310,3.7,5.8,90,0.00,OVC,,0.00,WeatherDisplay:10.37,2013-03-01 07:16:00,
2013-03-01 02:21:00,31.1,28.5,29.77,NNW,327,3.7,5.8,90,0.00,OVC,,0.00,WeatherDisplay:10.37,2013-03-01 07:21:00,
2013-03-01 02:26:00,31.0,28.4,29.77,NW,312,4.5,6.9,90,0.00,OVC,,0.00,WeatherDisplay:10.37,2013-03-01 07:26:00,
2013-03-01 02:31:00,31.0,28.4,29.77,NW,322,3.3,6.9,90,0.00,OVC,,0.00,WeatherDisplay:10.37,2013-03-01 07:31:00,
2013-03-01 02:36:00,30.9,28.3,29.77,NW,314,4.3,6.9,90,0.00,OVC,,0.00,WeatherDisplay:10.37,2013-03-01 07:36:00,
2013-03-01 02:41:00,30.8,28.2,29.77,WNW,299,4.8,9.2,90,0.00,OVC,,0.00,WeatherDisplay:10.37,2013-03-01 07:41:00,
2013-03-01 02:46:00,30.7,28.1,29.77,NW,313,3.8,8.1,90,0.00,OVC,,0.00,WeatherDisplay:10.37,2013-03-01 07:46:00,
2013-03-01 02:51:00,30.7,28.1,29.77,NNW,327,8.8,11.5,90,0.00,OVC,,0.00,WeatherDisplay:10.37,2013-03-01 07:51:00,
2013-03-01 02:56:00,30.7,27.8,29.77,NW,314,3.4,3.5,89,0.00,OVC,,0.00,WeatherDisplay:10.37,2013-03-01 07:56:00,
2013-03-01 03:01:00,30.7,27.8,29.78,WNW,293,4.5,9.2,89,0.00,OVC,,0.00,WeatherDisplay:10.37,2013-03-01 08:01:00,
2013-03-01 03:06:00,30.6,27.7,29.78,West,281,5.3,11.5,89,0.00,OVC,,0.00,WeatherDisplay:10.37,2013-03-01 08:06:00,
2013-03-01 03:11:00,30.5,27.6,29.78,WNW,295,2.8,4.6,89,0.00,OVC,,0.00,WeatherDisplay:10.37,2013-03-01 08:11:00,
2013-03-01 03:16:00,30.4,27.5,29.78,WNW,300,7.7,11.5,89,0.00,OVC,,0.00,WeatherDisplay:10.37,2013-03-01 08:16:00,
2013-03-01 03:22:00,30.3,27.2,29.78,NW,326,2.7,8.1,88,0.00,OVC,,0.00,WeatherDisplay:10.37,2013-03-01 08:22:00,
2013-03-01 03:27:00,30.3,27.2,29.78,WNW,287,5.6,9.2,88,0.00,OVC,,0.00,WeatherDisplay:10.37,2013-03-01 08:27:00,
2013-03-01 03:32:00,30.3,27.2,29.78,NW,326,8.2,11.5,88,0.00,OVC,,0.00,WeatherDisplay:10.37,2013-03-01 08:32:00,
2013-03-01 03:37:00,30.2,27.1,29.78,NW,323,3.8,9.2,88,0.00,OVC,,0.00,WeatherDisplay:10.37,2013-03-01 08:37:00,
2013-03-01 03:42:00,30.2,27.1,29.79,NNW,327,3.3,8.1,88,0.00,OVC,,0.00,WeatherDisplay:10.37,2013-03-01 08:42:00,
2013-03-01 03:47:00,30.2,27.3,29.78,NW,320,4.0,9.2,89,0.00,OVC,,0.00,WeatherDisplay:10.37,2013-03-01 08:47:00,
2013-03-01 03:52:00,30.2,27.3,29.79,NNW,331,2.8,8.1,89,0.00,OVC,,0.00,WeatherDisplay:10.37,2013-03-01 08:52:00,
2013-03-01 03:57:00,30.2,27.3,29.78,NNW,331,3.3,8.1,89,0.00,OVC,,0.00,WeatherDisplay:10.37,2013-03-01 08:57:00,
2013-03-01 04:02:00,30.2,27.3,29.79,WNW,299,6.0,11.5,89,0.00,OVC,,0.00,WeatherDisplay:10.37,2013-03-01 09:02:00,
2013-03-01 04:07:00,30.2,27.3,29.79,NW,324,3.6,8.1,89,0.00,OVC,,0.00,WeatherDisplay:10.37,2013-03-01 09:07:00,
2013-03-01 04:12:00,30.2,27.3,29.79,WNW,298,3.9,9.2,89,0.00,-SN,,0.00,WeatherDisplay:10.37,2013-03-01 09:12:00,
2013-03-01 04:17:00,30.2,27.3,29.79,WNW,296,4.6,8.0,89,0.00,-SN,,0.00,WeatherDisplay:10.37,2013-03-01 09:17:00,
2013-03-01 04:22:00,30.1,27.3,29.79,NW,321,5.2,6.9,89,0.00,-SN,,0.00,WeatherDisplay:10.37,2013-03-01 09:22:00,
2013-03-01 04:27:00,30.1,27.3,29.79,WNW,300,4.6,6.0,89,0.00,-SN,,0.00,WeatherDisplay:10.37,2013-03-01 09:27:00,
2013-03-01 04:32:00,30.0,27.2,29.79,WNW,287,6.4,6.9,89,0.00,-SN,,0.00,WeatherDisplay:10.37,2013-03-01 09:32:00,
2013-03-01 04:37:00,29.9,26.8,29.80,NW,323,4.7,9.2,88,0.00,-SN,,0.00,WeatherDisplay:10.37,2013-03-01 09:37:00,
2013-03-01 04:42:00,29.8,26.7,29.80,NW,305,3.7,9.2,88,0.00,-SN,,0.00,WeatherDisplay:10.37,2013-03-01 09:42:00,
2013-03-01 04:47:00,29.8,26.7,29.80,WNW,289,8.4,11.5,88,0.00,-SN,,0.00,WeatherDisplay:10.37,2013-03-01 09:47:00,
2013-03-01 04:52:00,29.7,26.6,29.80,NW,311,4.5,5.8,88,0.00,-SN,,0.00,WeatherDisplay:10.37,2013-03-01 09:52:00,
2013-03-01 04:57:00,29.5,26.4,29.80,West,280,5.9,11.5,88,0.00,-SN,,0.00,WeatherDisplay:10.37,2013-03-01 09:57:00,
2013-03-01 05:02:00,29.4,26.3,29.80,NW,307,6.1,6.9,88,0.00,OVC,,0.00,WeatherDisplay:10.37,2013-03-01 10:02:00,
2013-03-01 05:07:00,29.4,26.3,29.81,WNW,301,4.0,5.8,88,0.00,OVC,,0.00,WeatherDisplay:10.37,2013-03-01 10:07:00,
2013-03-01 05:12:00,29.4,26.3,29.81,NW,307,6.0,9.0,88,0.00,OVC,,0.00,WeatherDisplay:10.37,2013-03-01 10:12:00,
2013-03-01 05:17:00,29.3,26.2,29.81,WNW,301,5.0,7.0,88,0.00,OVC,,0.00,WeatherDisplay:10.37,2013-03-01 10:17:00,
2013-03-01 05:22:00,29.3,26.2,29.81,NW,304,2.5,4.6,88,0.00,OVC,,0.00,WeatherDisplay:10.37,2013-03-01 10:22:00,
2013-03-01 05:27:00,29.3,26.2,29.81,NW,304,2.0,4.0,88,0.00,OVC,,0.00,WeatherDisplay:10.37,2013-03-01 10:27:00,
2013-03-01 05:32:00,29.3,26.2,29.81,WNW,299,3.0,6.0,88,0.00,OVC,,0.00,WeatherDisplay:10.37,2013-03-01 10:32:00,
2013-03-01 05:37:00,29.2,26.1,29.81,WNW,295,4.5,6.9,88,0.00,OVC,,0.00,WeatherDisplay:10.37,2013-03-01 10:37:00,
2013-03-01 05:42:00,29.2,26.1,29.81,WNW,298,3.9,8.1,88,0.00,OVC,,0.00,WeatherDisplay:10.37,2013-03-01 10:42:00,
2013-03-01 05:47:00,29.2,26.1,29.81,WNW,288,4.5,9.2,88,0.00,OVC,,0.00,WeatherDisplay:10.37,2013-03-01 10:47:00,
2013-03-01 05:52:00,29.2,26.1,29.81,WNW,283,4.2,6.9,88,0.00,OVC,,0.00,WeatherDisplay:10.37,2013-03-01 10:52:00,
2013-03-01 05:57:00,29.1,26.0,29.82,WNW,290,7.0,8.0,88,0.00,OVC,,0.00,WeatherDisplay:10.37,2013-03-01 10:57:00,
2013-03-01 06:02:00,29.1,26.0,29.82,NW,304,5.0,8.1,88,0.00,OVC,,0.00,WeatherDisplay:10.37,2013-03-01 11:02:00,
2013-03-01 06:07:00,29.1,26.0,29.82,WNW,297,4.1,6.9,88,0.00,OVC,,0.00,WeatherDisplay:10.37,2013-03-01 11:07:00,
2013-03-01 06:12:00,29.1,26.0,29.82,WNW,295,4.0,8.1,88,0.00,OVC,,0.00,WeatherDisplay:10.37,2013-03-01 11:12:00,
2013-03-01 06:17:00,29.1,26.0,29.82,NW,316,5.4,6.9,88,0.00,OVC,,0.00,WeatherDisplay:10.37,2013-03-01 11:17:00,
2013-03-01 06:22:00,29.1,26.0,29.82,WNW,289,6.4,10.4,88,0.00,OVC,,0.00,WeatherDisplay:10.37,2013-03-01 11:22:00,
2013-03-01 06:27:00,29.1,26.0,29.83,NNW,338,4.6,6.9,88,0.00,OVC,,0.00,WeatherDisplay:10.37,2013-03-01 11:27:00,
2013-03-01 06:32:00,29.1,26.0,29.82,NNW,334,5.5,9.2,88,0.00,OVC,,0.00,WeatherDisplay:10.37,2013-03-01 11:32:00,
2013-03-01 06:37:00,29.2,26.1,29.83,West,279,4.6,9.2,88,0.00,OVC,,0.00,WeatherDisplay:10.37,2013-03-01 11:37:00,
2013-03-01 06:42:00,29.2,26.1,29.83,NW,306,5.5,9.2,88,0.00,OVC,,0.00,WeatherDisplay:10.37,2013-03-01 11:42:00,
2013-03-01 06:47:00,29.2,25.8,29.83,NW,315,2.7,4.6,87,0.00,OVC,,0.00,WeatherDisplay:10.37,2013-03-01 11:47:00,
2013-03-01 06:52:00,29.1,25.7,29.83,NNW,329,6.1,11.5,87,0.00,OVC,,0.00,WeatherDisplay:10.37,2013-03-01 11:52:00,
2013-03-01 06:58:00,29.1,25.7,29.83,WNW,296,4.1,5.8,87,0.00,OVC,,0.00,WeatherDisplay:10.37,2013-03-01 11:58:00,
2013-03-01 07:03:00,29.0,25.6,29.83,NW,324,5.5,9.2,87,0.00,OVC,,0.00,WeatherDisplay:10.37,2013-03-01 12:03:00,
2013-03-01 07:08:00,29.0,25.6,29.83,NNW,329,6.4,10.4,87,0.00,OVC,,0.00,WeatherDisplay:10.37,2013-03-01 12:08:00,
2013-03-01 07:13:00,29.0,25.6,29.83,NNW,339,7.3,12.7,87,0.00,OVC,,0.00,WeatherDisplay:10.37,2013-03-01 12:13:00,
2013-03-01 07:18:00,29.0,25.6,29.84,NNW,329,4.6,11.5,87,0.00,OVC,,0.00,WeatherDisplay:10.37,2013-03-01 12:18:00,
2013-03-01 07:23:00,28.9,25.5,29.84,NNW,333,6.2,6.9,87,0.00,OVC,,0.00,WeatherDisplay:10.37,2013-03-01 12:23:00,
2013-03-01 07:28:00,29.0,25.6,29.84,North,360,4.0,8.1,87,0.00,OVC,,0.00,WeatherDisplay:10.37,2013-03-01 12:28:00,
2013-03-01 07:33:00,29.0,25.6,29.84,NW,322,4.2,8.1,87,0.00,-SN,,0.00,WeatherDisplay:10.37,2013-03-01 12:33:00,
2013-03-01 07:38:00,28.9,25.2,29.85,NNW,327,3.7,11.5,86,0.00,-SN,,0.00,WeatherDisplay:10.37,2013-03-01 12:38:00,
2013-03-01 07:43:00,28.9,25.2,29.85,NNW,348,4.9,10.4,86,0.00,-SN,,0.00,WeatherDisplay:10.37,2013-03-01 12:43:00,
2013-03-01 07:48:00,28.9,25.2,29.85,NNW,329,2.7,5.0,86,0.00,-SN,,0.00,WeatherDisplay:10.37,2013-03-01 12:48:00,
2013-03-01 07:53:00,28.9,25.2,29.85,NNW,347,5.4,11.5,86,0.00,-SN,,0.00,WeatherDisplay:10.37,2013-03-01 12:53:00,
2013-03-01 07:58:00,28.8,25.1,29.85,NW,310,4.8,8.1,86,0.00,-SN,,0.00,WeatherDisplay:10.37,2013-03-01 12:58:00,
2013-03-01 08:03:00,28.9,25.5,29.85,NW,323,5.8,6.9,87,0.00,-SN,,0.00,WeatherDisplay:10.37,2013-03-01 13:03:00,
2013-03-01 08:08:00,28.8,25.1,29.86,NNW,344,4.3,5.0,86,0.00,-SN,,0.00,WeatherDisplay:10.37,2013-03-01 13:08:00,
2013-03-01 08:13:00,28.8,25.1,29.86,North,351,5.6,11.5,86,0.00,-SN,,0.00,WeatherDisplay:10.37,2013-03-01 13:13:00,
2013-03-01 08:18:00,28.8,25.1,29.86,NW,317,6.3,11.5,86,0.00,-SN,,0.00,WeatherDisplay:10.37,2013-03-01 13:18:00,
2013-03-01 08:23:00,28.7,25.0,29.86,West,276,5.0,11.5,86,0.00,-SN,,0.00,WeatherDisplay:10.37,2013-03-01 13:23:00,
2013-03-01 08:28:00,28.7,25.0,29.86,NW,325,4.8,9.2,86,0.00,-SN,,0.00,WeatherDisplay:10.37,2013-03-01 13:28:00,
2013-03-01 08:33:00,28.7,25.0,29.86,NNW,337,4.1,10.4,86,0.00,-SN,,0.00,WeatherDisplay:10.37,2013-03-01 13:33:00,
2013-03-01 08:38:00,28.7,25.0,29.86,North,355,5.4,11.5,86,0.00,-SN,,0.00,WeatherDisplay:10.37,2013-03-01 13:38:00,
2013-03-01 08:43:00,28.6,24.9,29.86,WNW,300,5.0,8.1,86,0.00,-SN,,0.00,WeatherDisplay:10.37,2013-03-01 13:43:00,
2013-03-01 08:48:00,28.5,24.8,29.86,NNW,331,5.9,8.1,86,0.00,-SN,,0.00,WeatherDisplay:10.37,2013-03-01 13:48:00,
2013-03-01 08:53:00,28.5,24.8,29.86,NNW,329,4.9,8.1,86,0.00,-SN,,0.00,WeatherDisplay:10.37,2013-03-01 13:53:00,
2013-03-01 08:58:00,28.4,24.7,29.87,WNW,300,9.0,12.0,86,0.00,-SN,,0.00,WeatherDisplay:10.37,2013-03-01 13:58:00,
2013-03-01 09:03:00,28.3,24.6,29.87,NNW,341,6.8,10.4,86,0.00,-SN,,0.00,WeatherDisplay:10.37,2013-03-01 14:03:00,
2013-03-01 09:08:00,28.2,24.6,29.86,NW,324,7.4,13.8,86,0.00,-SN,,0.00,WeatherDisplay:10.37,2013-03-01 14:08:00,
2013-03-01 09:13:00,28.1,24.5,29.86,WNW,296,6.0,8.1,86,0.00,-SN,,0.00,WeatherDisplay:10.37,2013-03-01 14:13:00,
2013-03-01 09:18:00,28.1,24.5,29.87,NW,321,5.0,12.0,86,0.00,-SN,,0.00,WeatherDisplay:10.37,2013-03-01 14:18:00,
2013-03-01 09:23:00,28.1,26.1,29.87,NNW,333,4.8,6.9,92,0.00,-SN,,0.00,WeatherDisplay:10.37,2013-03-01 14:23:00,
2013-03-01 09:28:00,28.1,24.4,29.87,NW,321,3.0,12.0,86,0.00,-SN,,0.00,WeatherDisplay:10.37,2013-03-01 14:28:00,
2013-03-01 09:33:00,28.0,26.0,29.87,NW,317,6.0,13.0,92,0.00,-SN,,0.00,WeatherDisplay:10.37,2013-03-01 14:33:00,
2013-03-01 09:38:00,27.9,24.0,29.87,NW,319,5.0,9.0,85,0.00,-SN,,0.00,WeatherDisplay:10.37,2013-03-01 14:38:00,
2013-03-01 09:43:00,27.9,24.3,29.87,WNW,302,7.3,9.2,86,0.00,-SN,,0.00,WeatherDisplay:10.37,2013-03-01 14:43:00,
2013-03-01 09:48:00,27.8,24.2,29.87,NW,322,5.3,9.2,86,0.00,-SN,,0.00,WeatherDisplay:10.37,2013-03-01 14:48:00,
2013-03-01 09:53:00,27.6,23.7,29.87,NNW,336,10.6,13.8,85,0.00,-SN,,0.00,WeatherDisplay:10.37,2013-03-01 14:53:00,
2013-03-01 09:58:00,27.6,23.7,29.88,NW,314,6.0,9.0,85,0.00,-SN,,0.00,WeatherDisplay:10.37,2013-03-01 14:58:00,
2013-03-01 10:03:00,27.6,24.0,29.88,North,355,5.3,8.1,86,0.00,-SN,,0.00,WeatherDisplay:10.37,2013-03-01 15:03:00,
2013-03-01 10:08:00,27.6,24.0,29.88,NW,321,5.4,10.4,86,0.00,-SN,,0.00,WeatherDisplay:10.37,2013-03-01 15:08:00,
2013-03-01 10:13:00,27.5,23.6,29.88,NNW,327,7.0,9.0,85,0.00,-SN,,0.00,WeatherDisplay:10.37,2013-03-01 15:13:00,
2013-03-01 10:18:00,27.5,23.6,29.88,NW,312,5.2,8.1,85,0.00,-SN,,0.00,WeatherDisplay:10.37,2013-03-01 15:18:00,
2013-03-01 10:23:00,27.6,23.6,29.88,NW,323,7.0,13.0,85,0.00,-SN,,0.00,WeatherDisplay:10.37,2013-03-01 15:23:00,
2013-03-01 10:28:00,27.5,23.6,29.88,NW,324,4.3,10.4,85,0.00,-SN,,0.00,WeatherDisplay:10.37,2013-03-01 15:28:00,
2013-03-01 10:33:00,27.5,23.6,29.88,WNW,302,4.4,11.5,85,0.00,-SN,,0.00,WeatherDisplay:10.37,2013-03-01 15:33:00,
2013-03-01 10:38:00,27.5,23.6,29.88,NW,306,5.0,12.0,85,0.00,-SN,,0.00,WeatherDisplay:10.37,2013-03-01 15:38:00,
2013-03-01 10:43:00,27.6,23.7,29.88,NNW,340,3.9,8.1,85,0.00,-SN,,0.00,WeatherDisplay:10.37,2013-03-01 15:43:00,
2013-03-01 10:48:00,27.8,23.9,29.89,NW,319,3.0,5.0,85,0.00,-SN,,0.00,WeatherDisplay:10.37,2013-03-01 15:48:00,
2013-03-01 10:53:00,27.9,23.7,29.89,NW,307,4.3,4.3,84,0.00,-SN,,0.00,WeatherDisplay:10.37,2013-03-01 15:53:00,
2013-03-01 10:58:00,27.8,23.6,29.89,WNW,296,5.0,9.2,84,0.00,-SN,,0.00,WeatherDisplay:10.37,2013-03-01 15:58:00,
2013-03-01 11:03:00,27.8,23.3,29.89,NNW,333,6.8,10.4,83,0.00,-SN,,0.00,WeatherDisplay:10.37,2013-03-01 16:03:00,
2013-03-01 11:08:00,27.8,23.3,29.89,NW,319,3.7,10.4,83,0.00,-SN,,0.00,WeatherDisplay:10.37,2013-03-01 16:08:00,
2013-03-01 11:13:00,27.8,23.6,29.89,NW,311,6.0,8.0,84,0.00,-SN,,0.00,WeatherDisplay:10.37,2013-03-01 16:13:00,
2013-03-01 11:18:00,27.9,23.7,29.89,NW,316,5.0,12.0,84,0.00,-SN,,0.00,WeatherDisplay:10.37,2013-03-01 16:18:00,
2013-03-01 11:23:00,27.8,23.6,29.89,NW,306,3.9,9.2,84,0.00,-SN,,0.00,WeatherDisplay:10.37,2013-03-01 16:23:00,
2013-03-01 11:28:00,27.7,23.2,29.89,NW,312,6.0,12.0,83,0.00,-SN,,0.00,WeatherDisplay:10.37,2013-03-01 16:28:00,
2013-03-01 11:33:00,27.6,23.4,29.89,WNW,291,6.0,9.2,84,0.00,-SN,,0.00,WeatherDisplay:10.37,2013-03-01 16:33:00,
2013-03-01 11:38:00,27.6,23.4,29.89,NW,310,4.6,6.9,84,0.00,-SN,,0.00,WeatherDisplay:10.37,2013-03-01 16:38:00,
2013-03-01 11:43:00,27.7,23.5,29.89,NW,314,3.0,6.0,84,0.00,-SN,,0.00,WeatherDisplay:10.37,2013-03-01 16:43:00,
2013-03-01 11:48:00,27.7,23.5,29.89,WNW,303,8.0,10.0,84,0.00,-SN,,0.00,WeatherDisplay:10.37,2013-03-01 16:48:00,
2013-03-01 11:53:00,27.6,23.4,29.89,WNW,298,3.7,6.9,84,0.00,-SN,,0.00,WeatherDisplay:10.37,2013-03-01 16:53:00,
2013-03-01 11:58:00,27.6,23.4,29.89,WNW,295,6.2,6.9,84,0.00,-SN,,0.00,WeatherDisplay:10.37,2013-03-01 16:58:00,
2013-03-01 12:03:00,27.5,23.3,29.89,WNW,294,3.5,8.0,84,0.00,-SN,,0.00,WeatherDisplay:10.37,2013-03-01 17:03:00,
2013-03-01 12:08:00,27.4,23.2,29.90,NW,311,4.9,9.2,84,0.00,-SN,,0.00,WeatherDisplay:10.37,2013-03-01 17:08:00,
2013-03-01 12:14:00,27.4,23.2,29.89,WNW,291,3.7,5.8,84,0.00,-SN,,0.00,WeatherDisplay:10.37,2013-03-01 17:14:00,
2013-03-01 12:19:00,27.3,23.1,29.90,West,275,9.5,13.8,84,0.00,-SN,,0.00,WeatherDisplay:10.37,2013-03-01 17:19:00,
2013-03-01 12:24:00,27.2,23.0,29.90,WNW,296,6.4,9.2,84,0.00,OVC,,0.00,WeatherDisplay:10.37,2013-03-01 17:24:00,
2013-03-01 12:28:00,27.1,22.9,29.90,WNW,294,7.0,10.4,84,0.00,OVC,,0.00,WeatherDisplay:10.37,2013-03-01 17:28:00,
2013-03-01 12:34:00,27.2,23.3,29.90,West,271,6.9,11.5,85,0.00,OVC,,0.00,WeatherDisplay:10.37,2013-03-01 17:34:00,
2013-03-01 12:39:00,27.2,23.0,29.90,NW,304,7.4,11.5,84,0.00,OVC,,0.00,WeatherDisplay:10.37,2013-03-01 17:39:00,
2013-03-01 12:44:00,27.0,22.8,29.90,NW,304,6.6,9.2,84,0.00,OVC,,0.00,WeatherDisplay:10.37,2013-03-01 17:44:00,
2013-03-01 12:49:00,26.8,22.6,29.90,WNW,296,7.2,11.0,84,0.00,OVC,,0.00,WeatherDisplay:10.37,2013-03-01 17:49:00,
2013-03-01 12:54:00,26.7,22.2,29.90,WNW,295,10.1,13.8,83,0.00,OVC,,0.00,WeatherDisplay:10.37,2013-03-01 17:54:00,
2013-03-01 12:59:00,26.8,22.6,29.90,West,281,8.5,12.7,84,0.00,OVC,,0.00,WeatherDisplay:10.37,2013-03-01 17:59:00,
2013-03-01 13:04:00,26.7,22.2,29.90,WNW,298,10.4,13.8,83,0.00,OVC,,0.00,WeatherDisplay:10.37,2013-03-01 18:04:00,
2013-03-01 13:09:00,26.7,22.2,29.90,NW,315,7.1,11.5,83,0.00,OVC,,0.00,WeatherDisplay:10.37,2013-03-01 18:09:00,
2013-03-01 13:14:00,26.8,22.3,29.90,West,277,5.8,9.2,83,0.00,OVC,,0.00,WeatherDisplay:10.37,2013-03-01 18:14:00,
2013-03-01 13:19:00,26.7,22.2,29.90,WNW,300,6.9,11.5,83,0.00,OVC,,0.00,WeatherDisplay:10.37,2013-03-01 18:19:00,
2013-03-01 13:24:00,26.6,21.8,29.90,WNW,284,5.2,10.4,82,0.00,OVC,,0.00,WeatherDisplay:10.37,2013-03-01 18:24:00,
2013-03-01 13:29:00,26.6,21.8,29.90,NW,304,7.1,10.4,82,0.00,OVC,,0.00,WeatherDisplay:10.37,2013-03-01 18:29:00,
2013-03-01 13:34:00,26.6,21.8,29.90,NW,307,9.2,11.5,82,0.00,OVC,,0.00,WeatherDisplay:10.37,2013-03-01 18:34:00,
2013-03-01 13:39:00,26.6,21.8,29.90,West,275,7.1,11.5,82,0.00,OVC,,0.00,WeatherDisplay:10.37,2013-03-01 18:39:00,
2013-03-01 13:44:00,26.5,21.7,29.89,WNW,299,6.0,11.0,82,0.00,OVC,,0.00,WeatherDisplay:10.37,2013-03-01 18:44:00,
2013-03-01 13:49:00,26.5,21.7,29.90,West,268,8.1,11.5,82,0.00,OVC,,0.00,WeatherDisplay:10.37,2013-03-01 18:49:00,
2013-03-01 13:54:00,26.3,21.6,29.89,West,277,7.0,12.0,82,0.00,OVC,,0.00,WeatherDisplay:10.37,2013-03-01 18:54:00,
2013-03-01 13:59:00,26.2,21.5,29.89,West,275,8.4,11.5,82,0.00,OVC,,0.00,WeatherDisplay:10.37,2013-03-01 18:59:00,
2013-03-01 14:04:00,26.2,21.5,29.90,WSW,253,5.6,11.5,82,0.00,OVC,,0.00,WeatherDisplay:10.37,2013-03-01 19:04:00,
2013-03-01 14:09:00,26.1,21.4,29.90,WNW,283,7.5,10.4,82,0.00,OVC,,0.00,WeatherDisplay:10.37,2013-03-01 19:09:00,
2013-03-01 14:14:00,26.1,21.4,29.90,West,271,4.8,6.9,82,0.00,OVC,,0.00,WeatherDisplay:10.37,2013-03-01 19:14:00,
2013-03-01 14:19:00,26.1,21.4,29.90,West,270,7.2,11.5,82,0.00,OVC,,0.00,WeatherDisplay:10.37,2013-03-01 19:19:00,
2013-03-01 14:24:00,26.1,21.4,29.90,WNW,298,4.3,8.1,82,0.00,OVC,,0.00,WeatherDisplay:10.37,2013-03-01 19:24:00,
2013-03-01 14:29:00,26.2,21.5,29.90,West,275,5.1,11.5,82,0.00,OVC,,0.00,WeatherDisplay:10.37,2013-03-01 19:29:00,
2013-03-01 14:34:00,26.2,21.2,29.90,West,277,6.7,10.4,81,0.00,OVC,,0.00,WeatherDisplay:10.37,2013-03-01 19:34:00,
2013-03-01 14:39:00,26.2,21.2,29.90,WNW,291,4.5,8.1,81,0.00,OVC,,0.00,WeatherDisplay:10.37,2013-03-01 19:39:00,
2013-03-01 14:44:00,26.3,21.3,29.90,West,273,7.2,10.4,81,0.00,OVC,,0.00,WeatherDisplay:10.37,2013-03-01 19:44:00,
2013-03-01 14:49:00,26.3,21.3,29.90,WNW,293,4.6,8.0,81,0.00,OVC,,0.00,WeatherDisplay:10.37,2013-03-01 19:49:00,
2013-03-01 14:54:00,26.3,21.3,29.90,WNW,302,5.3,11.5,81,0.00,OVC,,0.00,WeatherDisplay:10.37,2013-03-01 19:54:00,
2013-03-01 14:59:00,26.3,21.3,29.90,WNW,286,6.5,10.4,81,0.00,OVC,,0.00,WeatherDisplay:10.37,2013-03-01 19:59:00,
2013-03-01 15:04:00,26.5,21.5,29.90,West,279,5.2,11.5,81,0.00,OVC,,0.00,WeatherDisplay:10.37,2013-03-01 20:04:00,
2013-03-01 15:09:00,26.5,21.5,29.90,West,266,6.6,10.4,81,0.00,OVC,,0.00,WeatherDisplay:10.37,2013-03-01 20:09:00,
2013-03-01 15:14:00,26.5,21.2,29.90,NW,322,4.5,8.1,80,0.00,OVC,,0.00,WeatherDisplay:10.37,2013-03-01 20:14:00,
2013-03-01 15:19:00,26.4,21.1,29.90,WNW,290,7.0,11.5,80,0.00,OVC,,0.00,WeatherDisplay:10.37,2013-03-01 20:19:00,
2013-03-01 15:24:00,26.4,21.4,29.90,WSW,257,6.5,9.2,81,0.00,OVC,,0.00,WeatherDisplay:10.37,2013-03-01 20:24:00,
2013-03-01 15:29:00,26.3,21.0,29.90,WNW,291,5.8,9.2,80,0.00,OVC,,0.00,WeatherDisplay:10.37,2013-03-01 20:29:00,
2013-03-01 15:34:00,26.3,21.3,29.90,NW,320,4.3,8.1,81,0.00,OVC,,0.00,WeatherDisplay:10.37,2013-03-01 20:34:00,
2013-03-01 15:39:00,26.3,21.3,29.90,WNW,299,4.1,6.9,81,0.00,OVC,,0.00,WeatherDisplay:10.37,2013-03-01 20:39:00,
2013-03-01 15:44:00,26.5,21.2,29.90,WNW,291,5.6,9.2,80,0.00,OVC,,0.00,WeatherDisplay:10.37,2013-03-01 20:44:00,
2013-03-01 15:50:00,26.4,21.1,29.90,WNW,289,5.8,9.2,80,0.00,OVC,,0.00,WeatherDisplay:10.37,2013-03-01 20:50:00,
2013-03-01 15:55:00,26.4,21.1,29.90,NW,311,6.0,9.2,80,0.00,OVC,,0.00,WeatherDisplay:10.37,2013-03-01 20:55:00,
2013-03-01 16:00:00,26.4,21.1,29.90,WNW,287,5.3,9.2,80,0.00,OVC,,0.00,WeatherDisplay:10.37,2013-03-01 21:00:00,
2013-03-01 16:05:00,26.5,21.2,29.90,WNW,286,4.7,11.5,80,0.00,OVC,,0.00,WeatherDisplay:10.37,2013-03-01 21:05:00,
2013-03-01 16:10:00,26.7,21.4,29.90,NW,317,3.7,6.9,80,0.00,OVC,,0.00,WeatherDisplay:10.37,2013-03-01 21:10:00,
2013-03-01 16:15:00,26.8,21.5,29.90,WNW,290,6.8,8.1,80,0.00,OVC,,0.00,WeatherDisplay:10.37,2013-03-01 21:15:00,
2013-03-01 16:20:00,26.9,21.3,29.90,NW,304,2.0,4.6,79,0.00,OVC,,0.00,WeatherDisplay:10.37,2013-03-01 21:20:00,
2013-03-01 16:25:00,27.0,21.4,29.90,WNW,288,4.6,6.9,79,0.00,OVC,,0.00,WeatherDisplay:10.37,2013-03-01 21:25:00,
2013-03-01 16:30:00,27.1,21.5,29.90,WNW,284,5.4,8.1,79,0.00,OVC,,0.00,WeatherDisplay:10.37,2013-03-01 21:30:00,
2013-03-01 16:35:00,27.2,21.5,29.90,WNW,293,3.0,5.8,79,0.00,OVC,,0.00,WeatherDisplay:10.37,2013-03-01 21:35:00,
2013-03-01 16:40:00,27.2,21.2,29.90,West,272,5.5,10.4,78,0.00,OVC,,0.00,WeatherDisplay:10.37,2013-03-01 21:40:00,
2013-03-01 16:45:00,27.2,21.2,29.90,NW,304,2.9,9.2,78,0.00,OVC,,0.00,WeatherDisplay:10.37,2013-03-01 21:45:00,
2013-03-01 16:50:00,27.3,21.3,29.90,WNW,298,6.1,8.1,78,0.00,OVC,,0.00,WeatherDisplay:10.37,2013-03-01 21:50:00,
2013-03-01 16:55:00,27.3,21.3,29.90,WNW,290,4.2,6.9,78,0.00,OVC,,0.00,WeatherDisplay:10.37,2013-03-01 21:55:00,
2013-03-01 17:00:00,27.4,21.4,29.90,NW,319,3.3,8.1,78,0.00,OVC,,0.00,WeatherDisplay:10.37,2013-03-01 22:00:00,
2013-03-01 17:05:00,27.5,21.5,29.90,NW,306,5.0,8.1,78,0.00,BKN,,0.00,WeatherDisplay:10.37,2013-03-01 22:05:00,
2013-03-01 17:10:00,27.6,21.6,29.91,NW,315,3.5,6.9,78,0.00,BKN,,0.00,WeatherDisplay:10.37,2013-03-01 22:10:00,
2013-03-01 17:15:00,27.7,21.7,29.90,WNW,297,4.1,4.6,78,0.00,BKN,,0.00,WeatherDisplay:10.37,2013-03-01 22:15:00,
2013-03-01 17:20:00,27.7,21.7,29.90,West,260,3.8,5.8,78,0.00,BKN,,0.00,WeatherDisplay:10.37,2013-03-01 22:20:00,
2013-03-01 17:25:00,27.8,21.8,29.90,NW,304,4.1,5.8,78,0.00,BKN,,0.00,WeatherDisplay:10.37,2013-03-01 22:25:00,
2013-03-01 17:30:00,27.8,22.1,29.91,NW,309,3.8,5.8,79,0.00,BKN,,0.00,WeatherDisplay:10.37,2013-03-01 22:30:00,
2013-03-01 17:35:00,27.8,22.1,29.91,West,274,2.9,4.6,79,0.00,BKN,,0.00,WeatherDisplay:10.37,2013-03-01 22:35:00,
2013-03-01 17:40:00,27.8,22.1,29.91,West,281,3.0,4.6,79,0.00,BKN,,0.00,WeatherDisplay:10.37,2013-03-01 22:40:00,
2013-03-01 17:45:00,27.8,22.1,29.91,West,268,3.4,5.8,79,0.00,BKN,,0.00,WeatherDisplay:10.37,2013-03-01 22:45:00,
2013-03-01 17:50:00,27.8,21.8,29.91,WNW,297,3.9,6.9,78,0.00,BKN,,0.00,WeatherDisplay:10.37,2013-03-01 22:50:00,
2013-03-01 17:55:00,27.8,21.8,29.91,WNW,296,4.5,6.9,78,0.00,BKN,,0.00,WeatherDisplay:10.37,2013-03-01 22:55:00,
2013-03-01 18:00:00,27.8,21.8,29.91,WNW,298,6.3,10.4,78,0.00,BKN,,0.00,WeatherDisplay:10.37,2013-03-01 23:00:00,
2013-03-01 18:05:00,27.8,21.8,29.91,NW,325,4.3,8.1,78,0.00,BKN,,0.00,WeatherDisplay:10.37,2013-03-01 23:05:00,
2013-03-01 18:10:00,27.8,21.8,29.91,NNW,333,3.8,5.8,78,0.00,BKN,,0.00,WeatherDisplay:10.37,2013-03-01 23:10:00,
2013-03-01 18:15:00,27.8,21.8,29.91,WNW,284,3.8,4.6,78,0.00,BKN,,0.00,WeatherDisplay:10.37,2013-03-01 23:15:00,
2013-03-01 18:20:00,27.8,21.8,29.92,WNW,292,2.9,4.6,78,0.00,BKN,,0.00,WeatherDisplay:10.37,2013-03-01 23:20:00,
2013-03-01 18:25:00,27.8,21.8,29.91,West,281,2.7,4.6,78,0.00,BKN,,0.00,WeatherDisplay:10.37,2013-03-01 23:25:00,
2013-03-01 18:30:00,27.8,22.1,29.92,NW,311,5.0,9.2,79,0.00,BKN,,0.00,WeatherDisplay:10.37,2013-03-01 23:30:00,
2013-03-01 18:35:00,27.8,22.1,29.92,WSW,254,4.9,9.0,79,0.00,BKN,,0.00,WeatherDisplay:10.37,2013-03-01 23:35:00,
2013-03-01 18:40:00,27.8,22.1,29.92,WNW,298,5.3,8.1,79,0.00,BKN,,0.00,WeatherDisplay:10.37,2013-03-01 23:40:00,
2013-03-01 18:45:00,27.7,21.7,29.92,NW,304,5.4,8.1,78,0.00,BKN,,0.00,WeatherDisplay:10.37,2013-03-01 23:45:00,
2013-03-01 18:50:00,27.7,22.0,29.92,NW,304,1.5,4.6,79,0.00,BKN,,0.00,WeatherDisplay:10.37,2013-03-01 23:50:00,
2013-03-01 18:55:00,27.8,22.1,29.92,WNW,295,3.4,3.5,79,0.00,BKN,,0.00,WeatherDisplay:10.37,2013-03-01 23:55:00,
2013-03-01 19:00:00,27.7,22.3,29.92,West,281,4.9,5.8,80,0.00,OVC,,0.00,WeatherDisplay:10.37,2013-03-02 00:00:00,
2013-03-01 19:05:00,27.7,22.3,29.92,West,281,4.6,6.9,80,0.00,OVC,,0.00,WeatherDisplay:10.37,2013-03-02 00:05:00,
2013-03-01 19:10:00,27.7,22.6,29.93,West,279,4.7,4.7,81,0.00,OVC,,0.00,WeatherDisplay:10.37,2013-03-02 00:10:00,
2013-03-01 19:16:00,27.6,22.5,29.92,West,277,6.1,9.2,81,0.00,OVC,,0.00,WeatherDisplay:10.37,2013-03-02 00:16:00,
2013-03-01 19:21:00,27.6,22.5,29.93,WNW,300,5.3,8.1,81,0.00,OVC,,0.00,WeatherDisplay:10.37,2013-03-02 00:21:00,
2013-03-01 19:26:00,27.5,22.4,29.93,NW,315,5.7,9.2,81,0.00,OVC,,0.00,WeatherDisplay:10.37,2013-03-02 00:26:00,
2013-03-01 19:31:00,27.5,22.4,29.93,NW,323,3.2,8.1,81,0.00,OVC,,0.00,WeatherDisplay:10.37,2013-03-02 00:31:00,
2013-03-01 19:36:00,27.5,22.4,29.92,NW,313,3.4,5.8,81,0.00,OVC,,0.00,WeatherDisplay:10.37,2013-03-02 00:36:00,
2013-03-01 19:41:00,27.4,22.3,29.93,WNW,292,4.7,8.1,81,0.00,OVC,,0.00,WeatherDisplay:10.37,2013-03-02 00:41:00,
2013-03-01 19:46:00,27.4,22.3,29.93,West,276,4.9,6.9,81,0.00,OVC,,0.00,WeatherDisplay:10.37,2013-03-02 00:46:00,
2013-03-01 19:51:00,27.4,22.3,29.93,WNW,284,5.3,8.1,81,0.00,OVC,,0.00,WeatherDisplay:10.37,2013-03-02 00:51:00,
2013-03-01 19:56:00,27.3,22.2,29.93,WNW,287,4.5,11.5,81,0.00,OVC,,0.00,WeatherDisplay:10.37,2013-03-02 00:56:00,
2013-03-01 20:01:00,27.3,22.2,29.93,WNW,296,4.4,11.5,81,0.00,OVC,,0.00,WeatherDisplay:10.37,2013-03-02 01:01:00,
2013-03-01 20:06:00,27.2,22.1,29.93,WNW,299,1.9,4.0,81,0.00,OVC,,0.00,WeatherDisplay:10.37,2013-03-02 01:06:00,
2013-03-01 20:11:00,27.2,22.1,29.93,NW,309,4.8,6.9,81,0.00,OVC,,0.00,WeatherDisplay:10.37,2013-03-02 01:11:00,
2013-03-01 20:16:00,27.2,22.1,29.93,WNW,293,3.5,4.6,81,0.00,OVC,,0.00,WeatherDisplay:10.37,2013-03-02 01:16:00,
2013-03-01 20:21:00,27.2,22.1,29.93,WNW,290,4.5,7.0,81,0.00,OVC,,0.00,WeatherDisplay:10.37,2013-03-02 01:21:00,
2013-03-01 20:26:00,27.1,21.7,29.93,West,281,5.5,9.2,80,0.00,OVC,,0.00,WeatherDisplay:10.37,2013-03-02 01:26:00,
2013-03-01 20:31:00,27.1,21.7,29.93,WNW,288,4.6,6.9,80,0.00,OVC,,0.00,WeatherDisplay:10.37,2013-03-02 01:31:00,
2013-03-01 20:36:00,27.0,21.7,29.93,WNW,288,7.0,9.2,80,0.00,OVC,,0.00,WeatherDisplay:10.37,2013-03-02 01:36:00,
2013-03-01 20:41:00,27.0,21.7,29.93,WNW,295,6.4,8.1,80,0.00,OVC,,0.00,WeatherDisplay:10.37,2013-03-02 01:41:00,
2013-03-01 20:46:00,27.0,21.7,29.94,WNW,302,5.1,6.9,80,0.00,OVC,,0.00,WeatherDisplay:10.37,2013-03-02 01:46:00,
2013-03-01 20:51:00,26.9,21.6,29.94,WNW,284,5.8,8.1,80,0.00,OVC,,0.00,WeatherDisplay:10.37,2013-03-02 01:51:00,
2013-03-01 20:56:00,26.9,21.6,29.94,WNW,299,4.0,8.1,80,0.00,OVC,,0.00,WeatherDisplay:10.37,2013-03-02 01:56:00,
2013-03-01 21:01:00,26.9,21.8,29.93,WNW,302,4.3,8.1,81,0.00,OVC,,0.00,WeatherDisplay:10.37,2013-03-02 02:01:00,
2013-03-01 21:06:00,26.9,21.8,29.94,WNW,298,5.3,8.1,81,0.00,OVC,,0.00,WeatherDisplay:10.37,2013-03-02 02:06:00,
2013-03-01 21:11:00,26.8,21.8,29.94,WNW,295,6.2,6.2,81,0.00,OVC,,0.00,WeatherDisplay:10.37,2013-03-02 02:11:00,
2013-03-01 21:16:00,26.8,21.8,29.94,NW,311,5.8,6.9,81,0.00,OVC,,0.00,WeatherDisplay:10.37,2013-03-02 02:16:00,
2013-03-01 21:21:00,26.8,21.8,29.94,WNW,295,4.9,8.1,81,0.00,OVC,,0.00,WeatherDisplay:10.37,2013-03-02 02:21:00,
2013-03-01 21:26:00,26.8,21.8,29.94,NNW,329,6.3,10.4,81,0.00,OVC,,0.00,WeatherDisplay:10.37,2013-03-02 02:26:00,
2013-03-01 21:31:00,26.7,21.7,29.94,WNW,290,5.9,10.4,81,0.00,OVC,,0.00,WeatherDisplay:10.37,2013-03-02 02:31:00,
2013-03-01 21:36:00,26.7,21.7,29.94,WNW,296,4.1,9.2,81,0.00,OVC,,0.00,WeatherDisplay:10.37,2013-03-02 02:36:00,
2013-03-01 21:41:00,26.7,21.7,29.94,NW,306,3.9,9.2,81,0.00,OVC,,0.00,WeatherDisplay:10.37,2013-03-02 02:41:00,
2013-03-01 21:46:00,26.7,21.7,29.94,West,279,5.8,9.2,81,0.00,OVC,,0.00,WeatherDisplay:10.37,2013-03-02 02:46:00,
2013-03-01 21:51:00,26.7,21.7,29.94,WNW,290,6.1,10.4,81,0.00,OVC,,0.00,WeatherDisplay:10.37,2013-03-02 02:51:00,
2013-03-01 21:56:00,26.6,21.6,29.94,NW,306,2.9,5.8,81,0.00,OVC,,0.00,WeatherDisplay:10.37,2013-03-02 02:56:00,
2013-03-01 22:01:00,26.6,21.6,29.94,WNW,297,7.5,12.7,81,0.00,-SN,,0.00,WeatherDisplay:10.37,2013-03-02 03:01:00,
2013-03-01 22:06:00,26.5,21.5,29.95,NW,313,4.9,6.9,81,0.00,-SN,,0.00,WeatherDisplay:10.37,2013-03-02 03:06:00,
2013-03-01 22:11:00,26.5,21.5,29.94,WNW,299,7.0,9.0,81,0.00,-SN,,0.00,WeatherDisplay:10.37,2013-03-02 03:11:00,
2013-03-01 22:16:00,26.5,21.5,29.95,WNW,291,6.5,8.1,81,0.00,-SN,,0.00,WeatherDisplay:10.37,2013-03-02 03:16:00,
2013-03-01 22:21:00,26.4,21.4,29.95,NW,304,6.0,6.0,81,0.00,-SN,,0.00,WeatherDisplay:10.37,2013-03-02 03:21:00,
2013-03-01 22:26:00,26.4,21.7,29.95,NNW,330,4.4,9.2,82,0.00,-SN,,0.00,WeatherDisplay:10.37,2013-03-02 03:26:00,
2013-03-01 22:31:00,26.3,21.6,29.95,WNW,300,3.9,9.2,82,0.00,-SN,,0.00,WeatherDisplay:10.37,2013-03-02 03:31:00,
2013-03-01 22:36:00,26.1,21.1,29.95,NW,312,5.0,8.0,81,0.00,-SN,,0.00,WeatherDisplay:10.37,2013-03-02 03:36:00,
2013-03-01 22:41:00,26.0,21.0,29.95,NW,315,3.9,5.8,81,0.00,-SN,,0.00,WeatherDisplay:10.37,2013-03-02 03:41:00,
2013-03-01 22:46:00,25.8,20.8,29.95,NNW,333,6.0,14.0,81,0.00,-SN,,0.00,WeatherDisplay:10.37,2013-03-02 03:46:00,
2013-03-01 22:51:00,25.6,20.9,29.95,NW,310,5.0,9.0,82,0.00,-SN,,0.00,WeatherDisplay:10.37,2013-03-02 03:51:00,
2013-03-01 22:56:00,25.5,20.8,29.95,WNW,288,5.0,6.9,82,0.00,-SN,,0.00,WeatherDisplay:10.37,2013-03-02 03:56:00,
2013-03-01 23:01:00,25.4,20.7,29.95,WNW,295,3.6,5.8,82,0.00,-SN,,0.00,WeatherDisplay:10.37,2013-03-02 04:01:00,
2013-03-01 23:06:00,25.3,20.6,29.95,West,280,7.5,11.5,82,0.00,-SN,,0.00,WeatherDisplay:10.37,2013-03-02 04:06:00,
2013-03-01 23:11:00,25.2,20.5,29.95,NW,304,7.6,11.5,82,0.00,-SN,,0.00,WeatherDisplay:10.37,2013-03-02 04:11:00,
2013-03-01 23:16:00,25.1,20.7,29.95,NW,310,3.7,7.0,83,0.00,-SN,,0.00,WeatherDisplay:10.37,2013-03-02 04:16:00,
2013-03-01 23:21:00,25.1,20.6,29.95,WNW,297,3.0,5.0,83,0.00,-SN,,0.00,WeatherDisplay:10.37,2013-03-02 04:21:00,
2013-03-01 23:26:00,25.0,20.6,29.95,NW,307,2.2,6.9,83,0.00,-SN,,0.00,WeatherDisplay:10.37,2013-03-02 04:26:00,
2013-03-01 23:31:00,25.0,20.6,29.95,NW,314,5.0,6.0,83,0.00,-SN,,0.00,WeatherDisplay:10.37,2013-03-02 04:31:00,
2013-03-01 23:36:00,24.9,20.5,29.95,NW,316,7.0,12.0,83,0.00,-SN,,0.00,WeatherDisplay:10.37,2013-03-02 04:36:00,
2013-03-01 23:41:00,24.8,20.4,29.95,NW,311,3.3,6.9,83,0.00,-SN,,0.00,WeatherDisplay:10.37,2013-03-02 04:41:00,
2013-03-01 23:46:00,24.8,20.7,29.95,WNW,296,7.5,10.4,84,0.00,-SN,,0.00,WeatherDisplay:10.37,2013-03-02 04:46:00,
2013-03-01 23:51:00,24.7,20.6,29.95,NW,308,6.0,11.0,84,0.00,-SN,,0.00,WeatherDisplay:10.37,2013-03-02 04:51:00,
2013-03-01 23:56:00,24.6,20.4,29.95,WNW,302,8.0,10.0,84,0.00,-SN,,0.00,WeatherDisplay:10.37,2013-03-02 04:56:00,